Time;durP1;ratioP1;P1;durP2;ratioP2;P2;SDS_P1;SDS_P2;PMS_P1;PMS_P2;Temp;Humidity;BMP_temperature;BMP_pressure;BME280_temperature;BME280_humidity;BME280_pressure;Samples;Min_cycle;Max_cycle;Signal;HPM_P1;HPM_P2
2021/03/14 00:02:15;;;;;;;1.60;1.05;;;4.90;99.90;;;;;;5076906;28;20192;-70
2021/03/14 00:04:46;;;;;;;1.52;1.25;;;4.90;99.90;;;;;;5076932;28;20210;-70
2021/03/14 00:07:14;;;;;;;2.13;1.25;;;4.90;99.90;;;;;;5076898;28;20196;-69
2021/03/14 00:09:41;;;;;;;5.30;1.27;;;4.90;99.90;;;;;;5059080;28;20618;-69
2021/03/14 00:12:07;;;;;;;5.35;1.30;;;4.90;99.90;;;;;;5076781;28;20220;-69
2021/03/14 00:14:36;;;;;;;1.63;1.40;;;4.80;99.90;;;;;;5076733;28;20202;-69
2021/03/14 00:17:03;;;;;;;2.83;1.30;;;4.80;99.90;;;;;;5076504;28;20227;-68
2021/03/14 00:19:29;;;;;;;3.85;1.23;;;4.70;99.90;;;;;;5076585;28;20198;-70
2021/03/14 00:21:55;;;;;;;5.60;1.13;;;4.60;99.90;;;;;;5076544;28;20569;-70
2021/03/14 00:24:22;;;;;;;1.58;0.85;;;4.60;99.90;;;;;;5042228;28;20214;-70
2021/03/14 00:26:49;;;;;;;2.15;0.80;;;4.60;99.90;;;;;;5076723;28;20188;-70
2021/03/14 00:29:20;;;;;;;4.28;1.33;;;4.60;99.90;;;;;;5076663;28;20616;-70
2021/03/14 00:31:46;;;;;;;3.70;0.80;;;4.50;99.90;;;;;;5076044;28;20705;-69
2021/03/14 00:34:14;;;;;;;4.80;1.08;;;4.50;99.90;;;;;;5076241;28;20196;-70
2021/03/14 00:36:40;;;;;;;2.95;0.95;;;4.50;99.90;;;;;;5058687;28;20185;-70
2021/03/14 00:39:07;;;;;;;2.65;1.02;;;4.50;99.90;;;;;;5076368;28;20196;-70
2021/03/14 00:41:34;;;;;;;1.67;1.02;;;4.50;99.90;;;;;;5076699;28;20196;-69
2021/03/14 00:44:00;;;;;;;1.83;0.95;;;4.50;99.90;;;;;;5077080;28;20223;-70
2021/03/14 00:46:30;;;;;;;1.60;1.00;;;4.40;99.90;;;;;;5076234;28;20200;-70
2021/03/14 00:48:57;;;;;;;2.88;1.10;;;4.40;99.90;;;;;;5076535;28;20192;-69
2021/03/14 00:51:24;;;;;;;3.70;1.33;;;4.40;99.90;;;;;;5041991;28;20230;-70
2021/03/14 00:53:52;;;;;;;1.60;1.50;;;4.40;99.90;;;;;;5057169;28;20200;-70
2021/03/14 00:56:19;;;;;;;3.00;1.40;;;4.40;99.90;;;;;;5076345;28;20207;-69
2021/03/14 00:58:46;;;;;;;2.08;1.13;;;4.40;99.90;;;;;;5057939;28;20211;-69
2021/03/14 01:01:12;;;;;;;7.32;1.95;;;4.40;99.90;;;;;;5076026;28;20199;-69
2021/03/14 01:03:39;;;;;;;0.95;0.85;;;4.40;99.90;;;;;;5075919;28;20658;-70
2021/03/14 01:06:05;;;;;;;2.22;1.10;;;4.30;99.90;;;;;;5040827;28;20273;-70
2021/03/14 01:08:32;;;;;;;3.40;1.10;;;4.40;99.90;;;;;;5075891;28;20198;-70
2021/03/14 01:10:58;;;;;;;1.05;0.90;;;4.30;99.90;;;;;;5058257;28;20196;-70
2021/03/14 01:13:24;;;;;;;3.63;2.75;;;4.30;99.90;;;;;;5057534;28;20232;-70
2021/03/14 01:15:56;;;;;;;2.75;1.17;;;4.20;99.90;;;;;;5075644;28;20705;-70
2021/03/14 01:18:23;;;;;;;0.82;0.80;;;4.20;99.90;;;;;;5057504;28;20195;-70
2021/03/14 01:20:54;;;;;;;1.25;0.90;;;4.10;99.90;;;;;;5075868;28;20259;-70
2021/03/14 01:23:25;;;;;;;1.15;0.80;;;4.20;99.90;;;;;;5075354;28;20207;-70
2021/03/14 01:25:51;;;;;;;1.75;0.90;;;4.20;99.90;;;;;;5075168;28;20192;-69
2021/03/14 01:28:18;;;;;;;3.63;1.00;;;4.20;99.90;;;;;;5075406;28;20558;-69
2021/03/14 01:30:45;;;;;;;1.85;1.20;;;4.20;99.90;;;;;;5075061;28;20588;-69
2021/03/14 01:33:16;;;;;;;2.10;1.27;;;4.20;99.90;;;;;;5075114;28;20248;-69
2021/03/14 01:35:42;;;;;;;2.17;1.10;;;4.20;99.90;;;;;;5074804;28;20325;-69
2021/03/14 01:38:09;;;;;;;1.45;1.35;;;4.30;99.90;;;;;;5057719;28;20560;-70
2021/03/14 01:40:36;;;;;;;2.55;1.63;;;4.30;99.90;;;;;;5075097;28;20192;-69
2021/03/14 01:43:04;;;;;;;4.43;1.75;;;4.30;99.90;;;;;;5075240;28;20667;-70
2021/03/14 01:45:30;;;;;;;2.35;1.70;;;4.30;99.90;;;;;;5057283;28;20207;-69
2021/03/14 01:48:00;;;;;;;1.77;1.65;;;4.30;99.90;;;;;;5075150;28;20566;-70
2021/03/14 01:50:28;;;;;;;3.50;1.95;;;4.40;99.90;;;;;;5075300;28;20177;-69
2021/03/14 01:52:56;;;;;;;3.90;2.05;;;4.40;99.90;;;;;;5075231;28;20216;-69
2021/03/14 01:55:23;;;;;;;4.65;1.85;;;4.30;99.90;;;;;;5074723;28;20208;-69
2021/03/14 01:57:54;;;;;;;1.50;1.38;;;4.30;99.90;;;;;;5074886;28;20716;-69
2021/03/14 02:00:26;;;;;;;1.20;1.10;;;4.30;99.90;;;;;;5074898;28;20188;-69
2021/03/14 02:02:58;;;;;;;1.95;1.10;;;4.30;99.90;;;;;;5074834;28;20168;-70
2021/03/14 02:05:27;;;;;;;3.00;1.52;;;4.30;99.90;;;;;;5075020;28;20192;-70
2021/03/14 02:07:54;;;;;;;2.00;1.20;;;4.30;99.90;;;;;;5074645;28;20647;-70
2021/03/14 02:10:27;;;;;;;1.67;1.15;;;4.40;99.90;;;;;;5074912;28;20262;-70
2021/03/14 02:13:05;;;;;;;1.33;1.25;;;4.40;99.90;;;;;;5074504;28;20211;-69
2021/03/14 02:15:33;;;;;;;1.83;1.73;;;4.40;99.90;;;;;;5074526;28;20639;-69
2021/03/14 02:18:06;;;;;;;3.80;1.77;;;4.40;99.90;;;;;;5074226;28;20228;-69
2021/03/14 02:20:34;;;;;;;3.17;1.45;;;4.50;99.90;;;;;;5073750;28;20249;-70
2021/03/14 02:23:31;;;;;;;4.82;1.95;;;4.50;99.90;;;;;;5074256;28;20196;-70
2021/03/14 02:26:08;;;;;;;2.08;1.60;;;4.40;99.90;;;;;;5073615;28;20200;-70
2021/03/14 02:28:37;;;;;;;2.38;1.52;;;4.40;99.90;;;;;;5074313;28;20611;-70
2021/03/14 02:31:05;;;;;;;1.98;1.23;;;4.40;99.90;;;;;;5074156;28;20219;-69
2021/03/14 02:33:35;;;;;;;1.98;1.13;;;4.40;99.90;;;;;;5073212;28;20603;-69
2021/03/14 02:36:03;;;;;;;3.28;1.20;;;4.30;99.90;;;;;;5074112;28;20192;-70
2021/03/14 02:38:30;;;;;;;4.88;2.25;;;4.30;99.90;;;;;;5056172;28;20199;-70
2021/03/14 02:40:58;;;;;;;1.80;1.58;;;4.30;99.90;;;;;;5055834;28;20204;-70
2021/03/14 02:43:25;;;;;;;3.45;1.45;;;4.20;99.90;;;;;;5073909;28;20208;-69
2021/03/14 02:45:53;;;;;;;2.42;1.70;;;4.20;99.90;;;;;;5074157;28;20188;-69
2021/03/14 02:48:23;;;;;;;2.95;1.70;;;4.10;99.90;;;;;;5073769;28;20196;-69
2021/03/14 02:50:50;;;;;;;2.60;1.20;;;4.10;99.90;;;;;;5073848;28;20200;-69
2021/03/14 02:53:21;;;;;;;1.40;1.30;;;4.00;99.90;;;;;;5073759;28;20223;-69
2021/03/14 02:55:49;;;;;;;2.78;1.50;;;4.00;99.90;;;;;;5073799;28;20188;-69
2021/03/14 02:58:16;;;;;;;1.35;1.25;;;3.90;99.90;;;;;;5073794;28;20192;-69
2021/03/14 03:00:46;;;;;;;2.20;1.55;;;3.90;99.90;;;;;;5073423;28;20196;-69
2021/03/14 03:03:16;;;;;;;2.83;1.45;;;3.90;99.90;;;;;;5073358;28;20196;-69
2021/03/14 03:05:59;;;;;;;1.48;1.20;;;3.80;99.90;;;;;;5073353;28;20190;-69
2021/03/14 03:08:28;;;;;;;2.08;1.20;;;3.80;99.90;;;;;;5073175;28;20195;-69
2021/03/14 03:10:58;;;;;;;3.42;2.00;;;3.80;99.90;;;;;;5073445;28;20316;-70
2021/03/14 03:13:25;;;;;;;2.10;1.70;;;3.80;99.90;;;;;;5055450;28;20224;-70
2021/03/14 03:15:58;;;;;;;2.45;1.33;;;3.90;99.90;;;;;;5073207;28;20188;-69
2021/03/14 03:18:27;;;;;;;4.35;1.58;;;3.90;99.90;;;;;;5072768;28;20200;-69
2021/03/14 03:20:55;;;;;;;1.65;1.52;;;3.90;99.90;;;;;;5073552;28;20643;-69
2021/03/14 03:23:22;;;;;;;1.88;1.70;;;3.90;99.90;;;;;;5073739;28;20196;-69
2021/03/14 03:25:48;;;;;;;2.17;1.58;;;4.00;99.90;;;;;;5073307;28;20208;-69
2021/03/14 03:28:14;;;;;;;6.15;2.00;;;4.10;99.90;;;;;;5073541;28;20644;-69
2021/03/14 03:30:43;;;;;;;4.57;1.77;;;4.10;99.90;;;;;;5073196;28;20224;-69
2021/03/14 03:33:12;;;;;;;5.10;1.40;;;4.10;99.90;;;;;;5073426;28;20227;-69
2021/03/14 03:35:39;;;;;;;2.53;1.80;;;4.10;99.90;;;;;;5055926;28;20544;-69
2021/03/14 03:38:05;;;;;;;2.78;1.58;;;4.20;99.90;;;;;;5073283;28;20203;-69
2021/03/14 03:40:32;;;;;;;3.67;1.70;;;4.10;99.90;;;;;;5073487;28;20598;-69
2021/03/14 03:43:12;;;;;;;2.65;1.83;;;4.20;99.90;;;;;;5072965;28;20211;-69
2021/03/14 03:45:44;;;;;;;3.13;1.50;;;4.20;99.90;;;;;;5073679;28;20171;-69
2021/03/14 03:48:15;;;;;;;1.80;1.60;;;4.20;99.90;;;;;;5073583;28;20179;-69
2021/03/14 03:50:43;;;;;;;9.40;1.90;;;4.20;99.90;;;;;;5072863;28;20207;-69
2021/03/14 03:53:18;;;;;;;2.40;2.08;;;4.20;99.90;;;;;;5073159;28;20249;-68
2021/03/14 03:55:45;;;;;;;2.50;2.30;;;4.20;99.90;;;;;;5073531;28;20188;-68
2021/03/14 03:58:13;;;;;;;11.02;2.33;;;4.20;99.90;;;;;;5072887;28;20673;-69
2021/03/14 04:00:40;;;;;;;1.65;1.55;;;4.20;99.90;;;;;;5072809;28;20636;-68
2021/03/14 04:03:07;;;;;;;2.65;1.88;;;4.20;99.90;;;;;;5072538;28;20210;-69
2021/03/14 04:05:34;;;;;;;3.05;1.63;;;4.20;99.90;;;;;;5072808;28;20192;-68
2021/03/14 04:08:01;;;;;;;2.25;2.03;;;4.20;99.90;;;;;;5072228;28;20647;-69
2021/03/14 04:10:29;;;;;;;2.40;1.65;;;4.10;99.90;;;;;;5072625;28;20244;-70
2021/03/14 04:12:59;;;;;;;5.55;2.03;;;4.20;99.90;;;;;;5054856;28;20242;-69
2021/03/14 04:15:30;;;;;;;2.20;2.10;;;4.20;99.90;;;;;;5072421;28;20216;-69
2021/03/14 04:17:57;;;;;;;5.22;1.90;;;4.20;99.90;;;;;;5072919;28;20224;-69
2021/03/14 04:20:32;;;;;;;3.15;2.45;;;4.20;99.90;;;;;;5072993;28;20557;-69
2021/03/14 04:23:03;;;;;;;2.70;2.22;;;4.20;99.90;;;;;;5072592;28;20200;-68
2021/03/14 04:25:30;;;;;;;4.50;2.05;;;4.20;99.90;;;;;;5072982;28;20208;-69
2021/03/14 04:27:58;;;;;;;3.25;2.10;;;4.30;99.90;;;;;;5071920;28;20199;-69
2021/03/14 04:30:28;;;;;;;8.38;2.70;;;4.30;99.90;;;;;;5058687;28;20219;-69
2021/03/14 04:32:56;;;;;;;2.80;2.60;;;4.30;99.90;;;;;;5076197;28;20215;-69
2021/03/14 04:35:24;;;;;;;3.83;2.55;;;4.30;99.90;;;;;;5076328;28;20192;-69
2021/03/14 04:37:51;;;;;;;3.88;2.28;;;4.40;99.90;;;;;;5076327;28;20556;-69
2021/03/14 04:40:20;;;;;;;3.08;2.35;;;4.40;99.90;;;;;;5076241;28;20192;-68
2021/03/14 04:42:51;;;;;;;4.43;2.10;;;4.40;99.90;;;;;;5076300;28;20188;-68
2021/03/14 04:45:18;;;;;;;3.88;1.73;;;4.30;99.90;;;;;;5076810;28;20188;-68
2021/03/14 04:47:46;;;;;;;3.88;1.48;;;4.20;99.90;;;;;;5076450;28;20363;-69
2021/03/14 04:50:16;;;;;;;2.92;1.60;;;4.00;99.90;;;;;;5058305;28;20560;-69
2021/03/14 04:52:44;;;;;;;1.95;1.33;;;3.80;99.90;;;;;;5076189;28;20688;-68
2021/03/14 04:55:15;;;;;;;1.83;1.65;;;3.80;99.90;;;;;;5075629;28;20202;-70
2021/03/14 04:57:43;;;;;;;1.40;1.30;;;3.70;99.90;;;;;;5075740;28;20200;-68
2021/03/14 05:00:12;;;;;;;1.50;1.33;;;3.70;99.90;;;;;;5057768;28;20200;-68
2021/03/14 05:02:41;;;;;;;1.50;1.40;;;3.70;99.90;;;;;;5075955;28;20191;-68
2021/03/14 05:05:09;;;;;;;1.67;1.58;;;3.60;99.90;;;;;;5075293;28;20567;-69
2021/03/14 05:07:38;;;;;;;2.38;1.13;;;3.60;99.90;;;;;;5057652;28;20200;-68
2021/03/14 05:10:07;;;;;;;1.27;1.15;;;3.50;99.90;;;;;;5075255;28;20682;-68
2021/03/14 05:12:34;;;;;;;3.72;1.38;;;3.50;99.90;;;;;;5075546;28;20273;-68
2021/03/14 05:15:03;;;;;;;2.33;1.45;;;3.50;99.90;;;;;;5075156;28;20681;-69
2021/03/14 05:17:31;;;;;;;4.05;1.33;;;3.50;99.90;;;;;;5075653;28;20227;-69
2021/03/14 05:19:58;;;;;;;3.92;1.20;;;3.50;99.90;;;;;;5075561;28;20617;-69
2021/03/14 05:22:28;;;;;;;4.15;1.60;;;3.60;99.90;;;;;;5075358;28;20184;-69
2021/03/14 05:25:00;;;;;;;1.45;1.00;;;3.50;99.90;;;;;;5075216;28;20635;-69
2021/03/14 05:27:32;;;;;;;7.55;1.75;;;3.60;99.90;;;;;;5075433;28;20596;-69
2021/03/14 05:30:00;;;;;;;4.00;1.50;;;3.60;99.90;;;;;;5075265;28;20191;-69
2021/03/14 05:32:26;;;;;;;2.78;1.13;;;3.70;99.90;;;;;;5057150;28;20563;-69
2021/03/14 05:34:56;;;;;;;1.40;1.25;;;3.30;99.90;;;;;;5075112;28;20245;-69
2021/03/14 05:37:24;;;;;;;3.47;1.45;;;3.00;99.90;;;;;;5074921;28;20670;-70
2021/03/14 05:39:51;;;;;;;3.17;2.35;;;2.90;99.90;;;;;;5074640;28;20605;-70
2021/03/14 05:42:18;;;;;;;1.70;1.60;;;2.90;99.90;;;;;;5074839;28;20196;-69
2021/03/14 05:44:47;;;;;;;1.90;1.80;;;2.90;99.90;;;;;;5074961;28;20203;-69
2021/03/14 05:47:16;;;;;;;6.88;2.53;;;3.00;99.90;;;;;;5074885;28;20196;-69
2021/03/14 05:49:45;;;;;;;4.22;1.90;;;3.20;99.90;;;;;;5074964;28;20278;-68
2021/03/14 05:52:16;;;;;;;5.10;2.60;;;3.20;99.90;;;;;;5074716;28;20195;-70
2021/03/14 05:54:45;;;;;;;2.40;1.70;;;3.20;99.90;;;;;;5074710;28;20180;-70
2021/03/14 05:57:17;;;;;;;1.70;1.60;;;3.30;99.90;;;;;;5057287;28;20183;-68
2021/03/14 05:59:52;;;;;;;2.97;2.15;;;3.30;99.90;;;;;;5074907;28;20196;-70
2021/03/14 06:02:19;;;;;;;9.68;2.65;;;3.30;99.90;;;;;;5073990;28;20226;-68
2021/03/14 06:04:47;;;;;;;6.28;2.60;;;3.40;99.90;;;;;;5074479;28;20255;-68
2021/03/14 06:07:14;;;;;;;2.60;2.40;;;3.60;99.90;;;;;;5074909;28;20306;-70
2021/03/14 06:09:40;;;;;;;7.63;3.00;;;3.60;99.90;;;;;;5074315;28;20192;-69
2021/03/14 06:12:13;;;;;;;4.90;2.60;;;3.70;99.90;;;;;;5074349;28;20237;-69
2021/03/14 06:14:43;;;;;;;3.15;2.40;;;3.70;99.90;;;;;;5074112;28;20204;-69
2021/03/14 06:17:11;;;;;;;5.03;2.30;;;3.60;99.90;;;;;;5073990;28;20231;-69
2021/03/14 06:19:37;;;;;;;3.38;2.10;;;3.50;99.90;;;;;;5074286;28;20184;-69
2021/03/14 06:22:24;;;;;;;3.65;2.90;;;3.50;99.90;;;;;;5074230;28;20655;-70
2021/03/14 06:24:53;;;;;;;2.55;2.15;;;3.50;99.90;;;;;;5074288;28;20251;-69
2021/03/14 06:27:54;;;;;;;11.18;2.60;;;3.50;99.90;;;;;;5056558;28;20549;-69
2021/03/14 06:30:29;;;;;;;9.25;2.92;;;3.60;99.90;;;;;;5074754;28;20298;-70
2021/03/14 06:33:02;;;;;;;7.25;2.70;;;3.60;99.90;;;;;;5074346;28;20293;-70
2021/03/14 06:35:43;;;;;;;8.93;2.95;;;3.60;99.90;;;;;;5056207;28;20573;-69
2021/03/14 06:38:27;;;;;;;3.72;2.45;;;3.60;99.90;;;;;;5074225;28;20172;-70
2021/03/14 06:41:02;;;;;;;2.67;2.22;;;3.60;99.90;;;;;;5073763;28;20271;-70
2021/03/14 06:43:34;;;;;;;5.38;2.40;;;3.60;99.90;;;;;;5074364;28;20261;-70
2021/03/14 06:46:16;;;;;;;4.45;2.10;;;3.70;99.90;;;;;;5074787;28;20200;-69
2021/03/14 06:48:45;;;;;;;3.75;1.80;;;3.70;99.90;;;;;;5074293;28;20176;-70
2021/03/14 06:51:31;;;;;;;6.25;2.05;;;3.80;99.90;;;;;;5074361;28;20192;-70
2021/03/14 06:54:21;;;;;;;4.32;2.20;;;3.80;99.90;;;;;;5055636;28;20272;-69
2021/03/14 06:57:14;;;;;;;4.85;1.80;;;3.90;99.90;;;;;;5074027;28;20192;-70
2021/03/14 06:59:43;;;;;;;4.40;1.80;;;3.90;99.90;;;;;;5056202;28;20200;-70
2021/03/14 07:02:13;;;;;;;8.25;2.65;;;4.00;99.90;;;;;;5074103;28;20203;-70
2021/03/14 07:04:52;;;;;;;4.45;2.50;;;4.00;99.90;;;;;;5074050;28;20176;-70
2021/03/14 07:07:32;;;;;;;8.38;2.00;;;4.00;99.90;;;;;;5073985;28;20183;-70
2021/03/14 07:09:58;;;;;;;6.07;2.03;;;4.00;99.90;;;;;;5073400;28;20196;-69
2021/03/14 07:12:30;;;;;;;5.28;2.58;;;4.00;99.90;;;;;;5073414;28;20210;-70
2021/03/14 07:15:13;;;;;;;5.97;2.72;;;4.00;99.90;;;;;;5056147;28;20545;-70
2021/03/14 07:17:41;;;;;;;4.72;2.20;;;4.00;99.90;;;;;;5073542;28;20695;-69
2021/03/14 07:20:15;;;;;;;6.00;2.78;;;4.00;99.90;;;;;;5073925;28;20180;-70
2021/03/14 07:22:59;;;;;;;4.78;2.05;;;4.10;99.90;;;;;;5056832;28;20234;-69
2021/03/14 07:25:27;;;;;;;2.50;2.03;;;4.10;99.90;;;;;;5073715;28;20246;-70
2021/03/14 07:27:56;;;;;;;1.73;1.60;;;4.10;99.90;;;;;;5073798;28;20379;-70
2021/03/14 07:30:27;;;;;;;4.93;2.50;;;4.10;99.90;;;;;;5073983;28;20223;-70
2021/03/14 07:32:55;;;;;;;8.50;3.80;;;4.00;99.90;;;;;;5073608;28;20227;-70
2021/03/14 07:35:23;;;;;;;2.28;1.90;;;4.00;99.90;;;;;;5073759;28;20188;-70
2021/03/14 07:37:51;;;;;;;8.00;2.47;;;4.00;99.90;;;;;;5073829;28;20203;-71
2021/03/14 07:40:23;;;;;;;4.55;2.60;;;4.00;99.90;;;;;;5072961;28;20657;-69
2021/03/14 07:42:57;;;;;;;6.75;2.40;;;3.90;99.90;;;;;;5073006;28;20188;-71
2021/03/14 07:45:24;;;;;;;8.57;3.03;;;4.00;99.90;;;;;;5073239;28;20261;-70
2021/03/14 07:47:56;;;;;;;8.18;3.20;;;4.00;99.90;;;;;;5072861;28;20203;-70
2021/03/14 07:50:30;;;;;;;9.93;5.07;;;4.10;99.90;;;;;;5072959;28;20204;-71
2021/03/14 07:53:08;;;;;;;7.20;2.90;;;4.20;99.90;;;;;;5072913;28;20200;-70
2021/03/14 07:55:36;;;;;;;5.07;3.08;;;4.20;99.90;;;;;;5072842;28;20208;-70
2021/03/14 07:58:04;;;;;;;3.40;2.78;;;4.30;99.90;;;;;;5072465;28;20200;-71
2021/03/14 08:00:37;;;;;;;9.38;3.33;;;4.20;99.90;;;;;;5072952;28;20517;-71
2021/03/14 08:03:06;;;;;;;6.57;3.65;;;4.20;99.90;;;;;;5055168;28;20208;-70
2021/03/14 08:05:47;;;;;;;5.60;3.63;;;4.30;99.90;;;;;;5068496;28;20204;-71
2021/03/14 08:08:25;;;;;;;8.25;3.53;;;4.40;99.90;;;;;;5073491;28;20556;-69
2021/03/14 08:10:55;;;;;;;10.25;3.33;;;4.30;99.90;;;;;;5065521;28;20203;-71
2021/03/14 08:13:30;;;;;;;4.35;2.78;;;4.30;99.90;;;;;;5073272;28;20224;-70
2021/03/14 08:16:08;;;;;;;4.70;2.70;;;4.30;99.90;;;;;;5076022;28;20199;-69
2021/03/14 08:18:49;;;;;;;10.57;3.58;;;4.40;99.90;;;;;;5076196;28;20557;-69
2021/03/14 08:21:21;;;;;;;6.00;2.75;;;4.40;99.90;;;;;;5076277;28;20192;-70
2021/03/14 08:23:53;;;;;;;4.13;3.33;;;4.40;99.90;;;;;;5076075;28;20667;-68
2021/03/14 08:26:22;;;;;;;5.35;3.10;;;4.40;99.90;;;;;;5076573;28;20198;-70
2021/03/14 08:28:59;;;;;;;7.93;3.67;;;4.30;99.90;;;;;;5075921;28;20588;-68
2021/03/14 08:31:45;;;;;;;4.95;3.08;;;4.40;99.90;;;;;;5076118;28;20246;-69
2021/03/14 08:34:27;;;;;;;10.52;2.97;;;4.40;99.90;;;;;;5077205;28;20200;-69
2021/03/14 08:36:54;;;;;;;9.25;3.03;;;4.40;99.90;;;;;;5076454;28;20192;-70
2021/03/14 08:39:25;;;;;;;12.43;2.50;;;4.40;99.90;;;;;;5076534;28;20176;-69
2021/03/14 08:42:02;;;;;;;5.65;2.80;;;4.30;99.90;;;;;;5075894;28;20549;-70
2021/03/14 08:44:41;;;;;;;13.07;2.55;;;4.30;99.90;;;;;;5058597;28;20211;-69
2021/03/14 08:47:11;;;;;;;5.28;3.10;;;4.30;99.90;;;;;;5076595;28;20191;-70
2021/03/14 08:49:49;;;;;;;16.00;3.72;;;4.40;99.90;;;;;;5076341;28;20681;-69
2021/03/14 08:52:18;;;;;;;7.72;3.17;;;4.40;99.90;;;;;;5076390;28;20647;-70
2021/03/14 08:54:50;;;;;;;8.55;3.25;;;4.40;99.90;;;;;;5076059;28;20663;-70
2021/03/14 08:57:18;;;;;;;11.45;4.47;;;4.40;99.90;;;;;;5076563;28;20204;-70
2021/03/14 08:59:52;;;;;;;16.63;3.75;;;4.40;99.90;;;;;;5075982;28;20173;-69
2021/03/14 09:02:29;;;;;;;10.48;4.00;;;4.50;99.90;;;;;;5075362;28;20215;-69
2021/03/14 09:05:13;;;;;;;9.38;3.65;;;4.40;99.90;;;;;;5076098;28;20643;-71
2021/03/14 09:08:01;;;;;;;13.15;3.50;;;4.40;99.90;;;;;;5075978;28;20267;-69
2021/03/14 09:10:36;;;;;;;7.57;3.10;;;4.50;99.90;;;;;;5057707;28;20198;-71
2021/03/14 09:13:04;;;;;;;7.40;3.40;;;4.40;99.90;;;;;;5075974;28;20560;-70
2021/03/14 09:15:31;;;;;;;4.72;3.40;;;4.60;99.90;;;;;;5074559;28;20271;-69
2021/03/14 09:18:00;;;;;;;9.98;3.47;;;4.60;99.90;;;;;;5075280;28;20227;-70
2021/03/14 09:20:26;;;;;;;8.52;3.13;;;4.70;99.90;;;;;;5057867;28;20250;-69
2021/03/14 09:22:52;;;;;;;9.70;2.83;;;4.80;99.90;;;;;;5075456;28;20215;-70
2021/03/14 09:25:19;;;;;;;4.55;3.35;;;4.90;99.90;;;;;;5075725;28;20188;-70
2021/03/14 09:27:47;;;;;;;11.85;3.25;;;4.90;99.90;;;;;;5075498;28;20238;-69
2021/03/14 09:30:18;;;;;;;7.47;3.22;;;4.80;99.90;;;;;;5075614;28;20561;-69
2021/03/14 09:32:50;;;;;;;6.85;3.20;;;4.80;99.90;;;;;;5075300;28;20180;-70
2021/03/14 09:35:34;;;;;;;7.82;2.75;;;4.90;99.90;;;;;;5058058;28;20195;-69
2021/03/14 09:38:07;;;;;;;5.13;2.65;;;5.00;99.90;;;;;;5075269;28;20358;-70
2021/03/14 09:40:42;;;;;;;6.38;3.05;;;5.10;99.90;;;;;;5074946;28;20199;-69
2021/03/14 09:43:14;;;;;;;3.45;2.60;;;5.30;99.90;;;;;;5075074;28;20202;-69
2021/03/14 09:45:53;;;;;;;4.40;2.85;;;5.30;99.90;;;;;;5074874;28;20208;-70
2021/03/14 09:48:23;;;;;;;5.18;2.45;;;5.30;99.90;;;;;;5075164;28;20263;-70
2021/03/14 09:51:00;;;;;;;5.35;2.83;;;5.50;99.90;;;;;;5074955;28;20176;-68
2021/03/14 09:53:37;;;;;;;4.03;2.28;;;5.50;99.90;;;;;;5074895;28;20353;-69
2021/03/14 09:56:12;;;;;;;3.20;2.10;;;5.50;99.90;;;;;;5057163;28;20191;-70
2021/03/14 09:58:41;;;;;;;7.03;2.70;;;5.40;99.90;;;;;;5057919;28;20170;-70
2021/03/14 10:01:09;;;;;;;4.47;2.15;;;5.60;99.90;;;;;;5074826;28;20196;-69
2021/03/14 10:03:36;;;;;;;9.02;2.50;;;5.70;99.90;;;;;;5074707;28;20214;-71
2021/03/14 10:06:07;;;;;;;3.25;2.05;;;5.60;99.90;;;;;;5056892;28;20566;-70
2021/03/14 10:08:38;;;;;;;7.18;2.42;;;5.60;99.90;;;;;;5074298;28;20655;-70
2021/03/14 10:11:11;;;;;;;5.75;2.92;;;5.60;99.90;;;;;;5074792;28;20176;-70
2021/03/14 10:13:40;;;;;;;5.15;2.80;;;5.60;99.90;;;;;;5057096;28;20255;-70
2021/03/14 10:16:13;;;;;;;5.28;3.67;;;5.60;99.90;;;;;;5074468;28;20228;-70
2021/03/14 10:18:40;;;;;;;6.63;2.60;;;5.60;99.90;;;;;;5074381;28;20176;-71
2021/03/14 10:21:15;;;;;;;9.05;2.50;;;5.70;99.90;;;;;;5074291;28;20242;-70
2021/03/14 10:23:46;;;;;;;6.10;2.75;;;5.60;99.90;;;;;;5074305;28;20598;-71
2021/03/14 10:26:13;;;;;;;5.40;2.20;;;5.60;99.90;;;;;;5074057;28;20196;-71
2021/03/14 10:28:43;;;;;;;8.50;2.60;;;5.60;99.90;;;;;;5074093;28;20207;-72
2021/03/14 10:31:10;;;;;;;7.80;2.70;;;5.60;99.90;;;;;;5074570;28;20216;-69
2021/03/14 10:33:42;;;;;;;4.53;2.22;;;5.50;99.90;;;;;;5073743;28;20220;-69
2021/03/14 10:36:12;;;;;;;7.60;3.33;;;5.30;99.90;;;;;;5073369;28;20579;-70
2021/03/14 10:38:44;;;;;;;5.60;2.63;;;5.10;99.90;;;;;;5073263;28;20635;-71
2021/03/14 10:41:13;;;;;;;5.30;3.35;;;4.90;99.90;;;;;;5073606;28;20199;-70
2021/03/14 10:44:01;;;;;;;5.35;2.30;;;4.70;99.90;;;;;;5073415;28;20223;-68
2021/03/14 10:46:53;;;;;;;10.25;3.45;;;4.60;99.90;;;;;;5042140;28;20212;-70
2021/03/14 10:49:30;;;;;;;4.63;2.85;;;4.60;99.90;;;;;;5056104;28;20188;-71
2021/03/14 10:51:58;;;;;;;13.00;5.10;;;4.50;99.90;;;;;;5073966;28;20641;-71
2021/03/14 10:54:37;;;;;;;10.20;3.90;;;4.50;99.90;;;;;;5074094;28;20222;-70
2021/03/14 10:57:14;;;;;;;5.95;2.70;;;4.50;99.90;;;;;;5073828;28;20195;-69
2021/03/14 10:59:43;;;;;;;5.43;2.47;;;4.50;99.90;;;;;;5056772;28;20225;-69
2021/03/14 11:02:34;;;;;;;3.53;2.28;;;4.50;99.90;;;;;;5073105;28;20196;-70
2021/03/14 11:05:03;;;;;;;10.65;2.90;;;4.40;99.90;;;;;;5073829;28;20184;-70
2021/03/14 11:07:35;;;;;;;3.30;2.65;;;4.50;99.90;;;;;;5073828;28;20556;-70
2021/03/14 11:10:08;;;;;;;4.80;2.90;;;4.40;99.90;;;;;;5056180;28;20566;-69
2021/03/14 11:12:36;;;;;;;4.68;2.53;;;4.40;99.90;;;;;;5073784;28;20669;-70
2021/03/14 11:15:04;;;;;;;7.72;3.00;;;4.40;99.90;;;;;;5073871;28;20211;-70
2021/03/14 11:17:36;;;;;;;6.22;3.10;;;4.50;99.90;;;;;;5073642;28;20585;-71
2021/03/14 11:20:05;;;;;;;8.70;2.97;;;4.40;99.90;;;;;;5074002;28;20647;-70
2021/03/14 11:22:33;;;;;;;4.60;2.63;;;4.40;99.90;;;;;;5056546;28;20176;-71
2021/03/14 11:25:00;;;;;;;4.90;2.85;;;4.30;99.90;;;;;;5074138;28;20199;-70
2021/03/14 11:27:28;;;;;;;6.57;3.00;;;4.30;99.90;;;;;;5073951;28;20184;-71
2021/03/14 11:29:55;;;;;;;3.85;2.85;;;4.30;99.90;;;;;;5039328;28;20204;-71
2021/03/14 11:32:21;;;;;;;3.30;2.33;;;4.30;99.90;;;;;;5073338;28;20195;-71
2021/03/14 11:34:47;;;;;;;4.65;2.45;;;4.40;99.90;;;;;;5073030;28;20565;-69
2021/03/14 11:37:16;;;;;;;6.40;2.85;;;4.50;99.90;;;;;;5073709;28;20221;-70
2021/03/14 11:39:43;;;;;;;5.88;3.08;;;4.60;99.90;;;;;;5058409;28;20208;-69
2021/03/14 11:42:11;;;;;;;3.25;3.05;;;4.60;99.90;;;;;;5077475;28;20200;-71
2021/03/14 11:44:37;;;;;;;8.00;3.05;;;4.50;99.90;;;;;;5077211;28;20199;-70
2021/03/14 11:47:06;;;;;;;12.55;2.70;;;4.60;99.90;;;;;;5077358;28;20223;-69
2021/03/14 11:49:34;;;;;;;4.70;2.47;;;4.50;99.90;;;;;;5077872;28;20655;-69
2021/03/14 11:52:00;;;;;;;7.47;2.50;;;4.50;99.90;;;;;;5076978;28;20291;-69
2021/03/14 11:54:29;;;;;;;7.38;3.90;;;4.60;99.90;;;;;;5060013;28;20686;-69
2021/03/14 11:56:55;;;;;;;6.75;3.20;;;4.90;99.90;;;;;;5059395;28;20192;-70
2021/03/14 11:59:22;;;;;;;4.57;2.80;;;4.80;99.90;;;;;;5077137;28;20252;-70
2021/03/14 12:01:49;;;;;;;5.65;2.53;;;4.90;99.90;;;;;;5077770;28;20202;-70
2021/03/14 12:04:18;;;;;;;4.97;2.75;;;4.90;99.90;;;;;;5077049;28;20192;-69
2021/03/14 12:06:46;;;;;;;5.47;3.42;;;5.00;99.90;;;;;;5077009;28;20250;-69
2021/03/14 12:09:12;;;;;;;7.85;4.00;;;4.90;99.90;;;;;;5076858;28;20215;-69
2021/03/14 12:11:41;;;;;;;8.25;3.53;;;5.10;99.90;;;;;;5076858;28;20231;-69
2021/03/14 12:14:08;;;;;;;8.20;3.13;;;5.10;99.90;;;;;;5076532;28;20228;-69
2021/03/14 12:16:34;;;;;;;8.43;3.38;;;5.10;99.90;;;;;;5076754;28;20224;-69
2021/03/14 12:19:01;;;;;;;9.35;2.55;;;4.90;99.90;;;;;;5076482;28;20200;-69
2021/03/14 12:21:30;;;;;;;5.32;2.90;;;4.90;99.90;;;;;;5059110;28;20245;-70
2021/03/14 12:23:57;;;;;;;7.40;3.03;;;5.00;99.90;;;;;;5076258;28;20207;-70
2021/03/14 12:26:25;;;;;;;5.60;2.78;;;5.10;99.90;;;;;;5076092;28;20755;-69
2021/03/14 12:28:53;;;;;;;6.65;2.78;;;5.00;99.90;;;;;;5076249;28;20192;-69
2021/03/14 12:31:19;;;;;;;4.63;2.03;;;5.00;99.90;;;;;;5076191;28;20208;-70
2021/03/14 12:33:46;;;;;;;2.05;1.80;;;5.00;99.90;;;;;;5058409;28;20239;-68
2021/03/14 12:36:13;;;;;;;2.92;1.40;;;5.00;99.90;;;;;;5076739;28;20188;-69
2021/03/14 12:38:41;;;;;;;3.13;1.45;;;5.00;99.90;;;;;;5076902;28;20287;-69
2021/03/14 12:41:10;;;;;;;3.75;1.75;;;5.00;99.90;;;;;;5076592;28;20223;-69
2021/03/14 12:43:36;;;;;;;1.08;0.98;;;4.90;99.90;;;;;;5042815;28;20235;-69
2021/03/14 12:46:02;;;;;;;1.77;0.80;;;4.90;99.90;;;;;;5076528;28;20274;-70
2021/03/14 12:48:29;;;;;;;1.30;1.20;;;4.80;99.90;;;;;;5076072;28;20186;-70
2021/03/14 12:50:55;;;;;;;0.85;0.80;;;4.90;99.90;;;;;;5058037;28;20199;-70
2021/03/14 12:53:24;;;;;;;2.10;1.23;;;4.90;99.90;;;;;;5076406;28;20307;-70
2021/03/14 12:55:51;;;;;;;1.05;0.95;;;5.00;99.90;;;;;;5076155;28;20231;-69
2021/03/14 12:58:17;;;;;;;0.90;0.90;;;4.90;99.90;;;;;;5058185;28;20552;-69
2021/03/14 13:00:44;;;;;;;0.90;0.90;;;5.00;99.90;;;;;;5058509;28;20188;-69
2021/03/14 13:03:13;;;;;;;0.80;0.73;;;4.90;99.90;;;;;;5076160;28;20192;-69
2021/03/14 13:05:40;;;;;;;0.77;0.75;;;4.90;99.90;;;;;;5077106;28;20195;-70
2021/03/14 13:08:08;;;;;;;0.80;0.80;;;5.10;99.90;;;;;;5075976;28;20279;-70
2021/03/14 13:10:36;;;;;;;0.60;0.57;;;5.30;99.90;;;;;;5075632;28;20219;-70
2021/03/14 13:13:05;;;;;;;0.75;0.75;;;5.10;99.90;;;;;;5059173;28;20187;-71